Terminal Aerodrome Forecast
Issued by NWS

Home | Current Version | Previous Version | Text Only | Print | Product List | Glossary On
Versions: 1 2 3 4 5 6 7 8 9 10 11 12 13 14 15 16 17 18 19 20
293
FTUS46 KEKA 300416 AAA
TAFUKI
TAF AMD
KUKI 300416Z 3004/3024 34006KT P6SM VCSH OVC025
     FM301400 31007KT P6SM SCT025
     FM301700 33011G17KT P6SM FEW025=

USA.gov is the U.S. government's official web portal to all federal, state and local government web resources and services.